Vision of The Seas — C6SE8 — position and weather

sailwx.info

Track history (hours):
 
Tides and Currents Weather Stations Pressure Air Temp Water Temp Dewpoint Dewpoint Depression Visibility Wind Speed Wind Dir Waves Ship Positions

Vision of The Seas

Operator: Royal Caribbean Cruises Ltd

Last reported at 2017-Aug-24 01:00 UTC. Time now 2017-Aug-24 01:11 UTC.
Position N 57°53' E 008°50'.

Type: Passenger vessel. MMSI: 311321000.

Date/timePositionNaut miles runAvg speedWind from/ knotsBaromVisibWave heightAir tempDewpointWater temp
2017-Aug-24 01:00N 57°53' E 008°50'15 8.0
2017-Aug-23 23:10N 57°52' E 009°17'1 6.5
2017-Aug-23 22:56N 57°53' E 009°20'6 6.5
2017-Aug-23 22:03N 57°54' E 009°31'0 6.2
2017-Aug-23 22:00N 57°54' E 009°31'3 6.6
2017-Aug-23 21:30N 57°54' E 009°38'3 6.3
2017-Aug-23 21:00N 57°55' E 009°43'3 6.8
2017-Aug-23 20:30N 57°56' E 009°49'3 6.9
2017-Aug-23 20:00N 57°57' E 009°56'3 6.8
2017-Aug-23 19:30N 57°58' E 010°02'3 6.9
2017-Aug-23 19:00N 57°57' E 010°08'4 6.8
2017-Aug-23 18:27N 57°57' E 010°15'3 6.6
2017-Aug-23 18:00N 57°55' E 010°20'4 6.5
2017-Aug-23 17:27N 57°54' E 010°27'3 6.4
2017-Aug-23 16:59N 57°53' E 010°32'3 6.1
2017-Aug-23 16:30N 57°52' E 010°37'3 6.4
2017-Aug-23 15:58N 57°49' E 010°42'3 6.5
2017-Aug-23 15:30N 57°47' E 010°46'3 6.7
2017-Aug-23 15:00N 57°44' E 010°46'3 6.4
2017-Aug-23 14:29N 57°43' E 010°40'3 1.4
2017-Aug-23 12:30N 57°43' E 010°35'0 0.0
2017-Aug-23 11:51N 57°43' E 010°35'0 0.0
2017-Aug-23 11:15N 57°43' E 010°35'0 0.0
2017-Aug-23 10:24N 57°43' E 010°35'0 0.0
2017-Aug-23 09:18N 57°43' E 010°35'0 0.0
2017-Aug-23 09:00N 57°43' E 010°35'0 0.0
2017-Aug-23 08:30N 57°43' E 010°35'0 0.0
2017-Aug-23 08:00N 57°43' E 010°35'0 0.0
2017-Aug-23 07:27N 57°43' E 010°35'0 0.0
2017-Aug-23 06:48N 57°43' E 010°35'0 0.0
2017-Aug-23 05:36N 57°43' E 010°35'0 0.0
2017-Aug-23 05:06N 57°43' E 010°35'0 0.1
2017-Aug-23 05:00N 57°43' E 010°35'2 3.8
2017-Aug-23 04:30N 57°43' E 010°39'510.3
2017-Aug-23 03:59N 57°42' E 010°48'510.3
2017-Aug-23 03:30N 57°40' E 010°58'510.1
2017-Aug-23 03:00N 57°39' E 011°06'510.3
2017-Aug-23 02:30N 57°35' E 011°14'510.7
2017-Aug-23 02:01N 57°32' E 011°21'510.3
2017-Aug-23 01:30N 57°28' E 011°27'510.3
2017-Aug-23 01:00N 57°23' E 011°30'510.4
2017-Aug-23 00:30N 57°18' E 011°33'510.7
2017-Aug-23 00:00N 57°13' E 011°37'610.8
2017-Aug-22 23:29N 57°08' E 011°40'510.6
2017-Aug-22 22:59N 57°03' E 011°43'710.6
2017-Aug-22 22:22N 56°56' E 011°47'3911.5
2017-Aug-22 18:59N 56°19' E 012°06'610.4
2017-Aug-22 18:24N 56°15' E 012°14'410.6
2017-Aug-22 18:00N 56°12' E 012°20'612.2
2017-Aug-22 17:30N 56°09' E 012°29'815.3
2017-Aug-22 17:01N 56°04' E 012°39'714.9
2017-Aug-22 16:31N 55°57' E 012°44'714.6
2017-Aug-22 16:01N 55°49' E 012°44'612.7
2017-Aug-22 15:31N 55°44' E 012°39'1 2.6
2017-Aug-22 14:58N 55°43' E 012°37'0 0.0
2017-Aug-22 14:28N 55°43' E 012°37'0 0.0
2017-Aug-22 13:58N 55°43' E 012°37'0 0.0
2017-Aug-22 13:28N 55°43' E 012°37'0 0.0
2017-Aug-22 12:58N 55°43' E 012°37'0 0.0
2017-Aug-22 12:28N 55°43' E 012°37'0 0.0
2017-Aug-22 11:58N 55°43' E 012°37'0 0.0
2017-Aug-22 11:28N 55°43' E 012°37'0 0.0
2017-Aug-22 10:58N 55°43' E 012°37'0 0.0
2017-Aug-22 10:28N 55°43' E 012°37'0 0.0
2017-Aug-22 09:58N 55°43' E 012°37'0 0.0
2017-Aug-22 09:28N 55°43' E 012°37'0 0.0
2017-Aug-22 08:58N 55°43' E 012°37'0 0.0
2017-Aug-22 08:28N 55°43' E 012°37'0 0.0
2017-Aug-22 07:58N 55°43' E 012°37'0 0.0
2017-Aug-22 07:28N 55°43' E 012°37'0 0.0
2017-Aug-22 06:58N 55°43' E 012°37'0 0.0
2017-Aug-22 06:28N 55°43' E 012°37'0 0.0
2017-Aug-22 05:58N 55°43' E 012°37'0 0.0
2017-Aug-22 05:28N 55°43' E 012°37'0 0.0
2017-Aug-22 04:58N 55°43' E 012°37'0 0.0
2017-Aug-22 04:28N 55°43' E 012°37'0 0.0
2017-Aug-22 03:58N 55°43' E 012°37'1 1.5
2017-Aug-22 03:30N 55°43' E 012°38'5 9.9
2017-Aug-22 03:00N 55°47' E 012°42'612.7
2017-Aug-22 02:30N 55°54' E 012°39'611.5
2017-Aug-22 02:00N 55°59' E 012°41'713.2
2017-Aug-22 01:31N 56°05' E 012°35'816.1
2017-Aug-22 01:00N 56°10' E 012°23'714.0
2017-Aug-22 00:31N 56°14' E 012°13'2811.9
2017-Aug-21 22:10N 56°15' E 011°23'214.2
2017-Aug-21 22:00N 56°13' E 011°21'814.4
2017-Aug-21 21:29N 56°08' E 011°12'715.0
2017-Aug-21 21:00N 56°01' E 011°06'814.8
2017-Aug-21 20:30N 55°55' E 010°58'814.8
2017-Aug-21 19:59N 55°49' E 010°50'714.6
2017-Aug-21 19:29N 55°42' E 010°48'714.3
2017-Aug-21 18:59N 55°35' E 010°50'713.9
2017-Aug-21 18:29N 55°29' E 010°55'714.3
2017-Aug-21 18:00N 55°23' E 011°02'714.0
2017-Aug-21 17:30N 55°16' E 011°05'713.3
2017-Aug-21 17:00N 55°10' E 011°04'713.8
2017-Aug-21 16:30N 55°03' E 011°03'714.0
2017-Aug-21 16:00N 54°56' E 010°57'612.8
2017-Aug-21 15:30N 54°51' E 010°53'714.1
2017-Aug-21 15:00N 54°44' E 010°53'815.7
2017-Aug-21 14:30N 54°39' E 011°04'715.0
2017-Aug-21 14:00N 54°35' E 011°15'815.1
2017-Aug-21 13:30N 54°31' E 011°26'714.2
2017-Aug-21 13:00N 54°29' E 011°38'713.9
2017-Aug-21 12:30N 54°26' E 011°49'714.6
2017-Aug-21 12:00N 54°27' E 012°01'713.1
2017-Aug-21 11:31N 54°30' E 012°11'714.5
2017-Aug-21 11:00N 54°37' E 012°15'4913.7
2017-Aug-21 07:28N 54°56' E 013°32'714.8
2017-Aug-21 07:00N 54°57' E 013°44'815.3
2017-Aug-21 06:30N 54°57' E 013°58'714.5
2017-Aug-21 06:00N 54°57' E 014°10'714.2
2017-Aug-21 05:30N 54°57' E 014°22'714.0
2017-Aug-21 05:01N 54°54' E 014°34'714.0
2017-Aug-21 04:30N 54°52' E 014°45'714.1
2017-Aug-21 04:01N 54°52' E 014°57'714.2
2017-Aug-21 03:31N 54°52' E 015°10'714.3
2017-Aug-21 03:01N 54°52' E 015°22'713.9
2017-Aug-21 02:30N 54°54' E 015°34'1114.3
2017-Aug-21 01:44N 54°59' E 015°51'8913.9
2017-Aug-20 19:20N 55°05' E 018°26'514.4
2017-Aug-20 19:00N 55°03' E 018°33'714.4
2017-Aug-20 18:30N 54°60' E 018°45'713.9
2017-Aug-20 18:01N 54°54' E 018°52'714.5
2017-Aug-20 17:31N 54°48' E 018°58'714.2
2017-Aug-20 17:01N 54°41' E 018°58'714.3
2017-Aug-20 16:31N 54°35' E 018°53'612.8
2017-Aug-20 16:01N 54°32' E 018°43'5 9.9
2017-Aug-20 15:31N 54°32' E 018°34'1 1.1
2017-Aug-20 14:57N 54°32' E 018°33'0 0.1
2017-Aug-20 14:27N 54°32' E 018°33'0 0.0
2017-Aug-20 13:57N 54°32' E 018°33'0 0.1
2017-Aug-20 13:27N 54°32' E 018°33'0 0.0
2017-Aug-20 12:57N 54°32' E 018°33'0 0.0
2017-Aug-20 12:27N 54°32' E 018°33'0 0.0
2017-Aug-20 11:57N 54°32' E 018°33'0 0.0
2017-Aug-20 11:27N 54°32' E 018°33'0 0.0
2017-Aug-20 10:57N 54°32' E 018°33'0 0.0
2017-Aug-20 10:27N 54°32' E 018°33'0 0.1
2017-Aug-20 09:57N 54°32' E 018°33'0 0.1
2017-Aug-20 09:27N 54°32' E 018°33'0 0.1
2017-Aug-20 08:57N 54°32' E 018°33'0 0.0
2017-Aug-20 08:27N 54°32' E 018°33'0 0.0
2017-Aug-20 07:57N 54°32' E 018°33'0 0.0
2017-Aug-20 07:27N 54°32' E 018°33'0 0.0
2017-Aug-20 06:57N 54°32' E 018°33'0 0.0
2017-Aug-20 06:27N 54°32' E 018°33'0 0.0
2017-Aug-20 05:58N 54°32' E 018°33'1 1.8
2017-Aug-20 05:30N 54°32' E 018°34'4 8.7
2017-Aug-20 05:00N 54°32' E 018°42'510.1
2017-Aug-20 04:30N 54°34' E 018°50'713.4
2017-Aug-20 04:00N 54°39' E 018°56'611.8
2017-Aug-20 03:30N 54°45' E 019°01'612.7
2017-Aug-20 03:00N 54°50' E 019°08'612.7
2017-Aug-20 02:30N 54°55' E 019°14'612.6
2017-Aug-20 02:00N 55°00' E 019°20'612.8
2017-Aug-20 01:30N 55°05' E 019°27'612.8
2017-Aug-20 01:00N 55°10' E 019°34'186 7.9
2017-Aug-19 01:27N 58°15' E 020°18'920.2
2017-Aug-19 01:00N 58°24' E 020°16'1020.1
2017-Aug-19 00:30N 58°34' E 020°15'1020.2
2017-Aug-19 00:00N 58°44' E 020°13'1020.4
2017-Aug-18 23:30N 58°54' E 020°11'1020.7
2017-Aug-18 23:00N 59°04' E 020°10'1020.7
2017-Aug-18 22:31N 59°15' E 020°08'1020.8
2017-Aug-18 22:00N 59°25' E 020°06'1020.1
2017-Aug-18 21:30N 59°35' E 020°02'1020.5
2017-Aug-18 21:00N 59°42' E 019°48'1019.3
2017-Aug-18 20:31N 59°46' E 019°31'815.1
2017-Aug-18 20:00N 59°45' E 019°16'917.4
2017-Aug-18 19:31N 59°41' E 019°00'510.4
2017-Aug-18 19:00N 59°38' E 018°52'612.1
2017-Aug-18 18:31N 59°35' E 018°42'510.4
2017-Aug-18 18:01N 59°32' E 018°33'510.0
2017-Aug-18 17:30N 59°29' E 018°27'5 9.3
2017-Aug-18 17:00N 59°24' E 018°26'3 6.0
2017-Aug-18 16:30N 59°22' E 018°22'510.5
2017-Aug-18 16:00N 59°20' E 018°12'2 3.8
2017-Aug-18 15:21N 59°21' E 018°07'0 0.0
2017-Aug-18 14:57N 59°21' E 018°07'0 0.0
2017-Aug-18 13:57N 59°21' E 018°07'0 0.0
2017-Aug-18 13:27N 59°21' E 018°07'0 0.0
2017-Aug-18 12:57N 59°21' E 018°07'0 0.0
2017-Aug-18 12:21N 59°21' E 018°07'0 0.0
2017-Aug-18 11:51N 59°21' E 018°07'0 0.0
2017-Aug-18 11:21N 59°21' E 018°07'0 0.0
2017-Aug-18 10:57N 59°21' E 018°07'0 0.0
2017-Aug-18 10:27N 59°21' E 018°07'0 0.0
2017-Aug-18 09:57N 59°21' E 018°07'0 0.0
2017-Aug-18 09:27N 59°21' E 018°07'0 0.0
2017-Aug-18 08:57N 59°21' E 018°07'0 0.0
2017-Aug-18 08:27N 59°21' E 018°07'0 0.0
2017-Aug-18 07:57N 59°21' E 018°07'0 0.0
2017-Aug-18 07:30N 59°21' E 018°07'0 0.0
2017-Aug-18 07:00N 59°21' E 018°07'0 0.0
2017-Aug-18 06:30N 59°21' E 018°07'0 0.0
2017-Aug-18 06:00N 59°21' E 018°07'2 3.3
2017-Aug-18 05:30N 59°20' E 018°11'510.4
2017-Aug-18 05:00N 59°23' E 018°20'4 7.4
2017-Aug-18 04:30N 59°22' E 018°27'4 9.0
2017-Aug-18 04:00N 59°26' E 018°24'510.6
2017-Aug-18 03:30N 59°31' E 018°30'5 9.6
2017-Aug-18 03:01N 59°34' E 018°38'611.6
2017-Aug-18 02:30N 59°37' E 018°48'510.4
2017-Aug-18 02:01N 59°40' E 018°56'714.3
2017-Aug-18 01:30N 59°44' E 019°08'815.9
2017-Aug-18 01:00N 59°46' E 019°23'612.3
2017-Aug-18 00:30N 59°48' E 019°34'714.6
2017-Aug-18 00:00N 59°46' E 019°48'816.2
2017-Aug-17 23:30N 59°40' E 019°60'817.0
2017-Aug-17 23:00N 59°34' E 020°11'917.2
2017-Aug-17 22:30N 59°26' E 020°16'917.8
2017-Aug-17 22:00N 59°24' E 020°33'918.1
2017-Aug-17 21:31N 59°24' E 020°51'1020.0
2017-Aug-17 21:00N 59°24' E 021°11'815.9
2017-Aug-17 20:31N 59°25' E 021°26'917.9
2017-Aug-17 20:01N 59°25' E 021°44'918.1
2017-Aug-17 19:30N 59°25' E 022°02'918.2
2017-Aug-17 19:00N 59°27' E 022°19'919.0
2017-Aug-17 18:30N 59°30' E 022°37'817.0
2017-Aug-17 18:00N 59°32' E 022°53'917.6
2017-Aug-17 17:30N 59°35' E 023°10'918.9
2017-Aug-17 17:01N 59°37' E 023°28'815.8
2017-Aug-17 16:30N 59°40' E 023°43'918.9
2017-Aug-17 16:01N 59°42' E 024°01'917.1
2017-Aug-17 15:31N 59°45' E 024°16'918.1
2017-Aug-17 15:01N 59°48' E 024°33'918.6
2017-Aug-17 14:31N 59°56' E 024°45'815.5
2017-Aug-17 14:01N 60°02' E 024°55'713.1
2017-Aug-17 13:30N 60°08' E 024°54'1 2.1
2017-Aug-17 13:00N 60°09' E 024°55'0 0.0
2017-Aug-17 12:30N 60°09' E 024°55'0 0.0
2017-Aug-17 11:58N 60°09' E 024°55'0 0.0
2017-Aug-17 11:28N 60°09' E 024°55'0 0.0
2017-Aug-17 10:58N 60°09' E 024°55'0 0.0
2017-Aug-17 10:30N 60°09' E 024°55'0 0.0
2017-Aug-17 09:59N 60°09' E 024°55'0 0.0
2017-Aug-17 09:29N 60°09' E 024°55'0 0.0
2017-Aug-17 08:58N 60°09' E 024°55'0 0.0
2017-Aug-17 08:28N 60°09' E 024°55'0 0.0
2017-Aug-17 07:58N 60°09' E 024°55'0 0.0
2017-Aug-17 07:29N 60°09' E 024°55'0 0.0
2017-Aug-17 06:58N 60°09' E 024°55'0 0.0
2017-Aug-17 06:29N 60°09' E 024°55'0 0.0
2017-Aug-17 05:58N 60°09' E 024°55'0 0.0
2017-Aug-17 05:25N 60°09' E 024°55'0 0.0
2017-Aug-17 04:58N 60°09' E 024°55'0 0.0
2017-Aug-17 04:28N 60°09' E 024°55'0 0.0
2017-Aug-17 03:58N 60°09' E 024°55'0 0.0
2017-Aug-17 03:30N 60°09' E 024°55'1 3.0
2017-Aug-17 03:00N 60°08' E 024°54'714.2
2017-Aug-17 02:30N 60°01' E 024°56'714.2
2017-Aug-17 02:01N 59°56' E 025°07'816.1
2017-Aug-17 01:31N 59°54' E 025°23'816.0
2017-Aug-17 01:01N 59°54' E 025°39'816.5
2017-Aug-17 00:30N 59°57' E 025°54'714.1
2017-Aug-17 00:01N 59°58' E 026°08'816.5
2017-Aug-16 23:31N 60°00' E 026°24'917.7
2017-Aug-16 23:01N 60°01' E 026°41'918.0
2017-Aug-16 22:31N 60°00' E 026°59'815.6
2017-Aug-16 22:00N 60°03' E 027°14'917.9
2017-Aug-16 21:31N 60°08' E 027°29'917.8
2017-Aug-16 21:00N 60°12' E 027°45'1021.0
2017-Aug-16 20:30N 60°09' E 028°05'918.0
2017-Aug-16 20:00N 60°06' E 028°22'917.3
2017-Aug-16 19:31N 60°03' E 028°38'714.4
2017-Aug-16 19:00N 60°03' E 028°53'917.8
2017-Aug-16 18:30N 60°02' E 029°10'816.6
2017-Aug-16 18:00N 60°02' E 029°27'611.9
2017-Aug-16 17:30N 60°00' E 029°38'5 9.7
2017-Aug-16 17:00N 59°58' E 029°47'611.6
2017-Aug-16 16:30N 59°56' E 029°58'510.3
2017-Aug-16 16:00N 59°57' E 030°08'2 3.6
2017-Aug-16 15:30N 59°57' E 030°11'0 0.0
2017-Aug-16 15:00N 59°57' E 030°11'0 0.0
2017-Aug-16 14:30N 59°57' E 030°11'0 0.0
2017-Aug-16 14:00N 59°57' E 030°11'0 0.0
2017-Aug-16 13:30N 59°57' E 030°11'0 0.0
2017-Aug-16 13:00N 59°57' E 030°11'0 0.0
2017-Aug-16 12:30N 59°57' E 030°11'0 0.0
2017-Aug-16 12:00N 59°57' E 030°11'0 0.0
2017-Aug-16 11:30N 59°57' E 030°11'0 0.0
2017-Aug-16 11:00N 59°57' E 030°11'0 0.0
2017-Aug-16 10:27N 59°57' E 030°11'0 0.0
2017-Aug-16 10:00N 59°57' E 030°11'0 0.0
2017-Aug-16 09:30N 59°57' E 030°11'0 0.0
2017-Aug-16 09:00N 59°57' E 030°11'0 0.0
2017-Aug-16 08:30N 59°57' E 030°11'0 0.0
2017-Aug-16 08:00N 59°57' E 030°11'0 0.0
2017-Aug-16 07:30N 59°57' E 030°11'0 0.0
2017-Aug-16 07:00N 59°57' E 030°11'0 0.0
2017-Aug-16 06:30N 59°57' E 030°11'0 0.0
2017-Aug-16 06:00N 59°57' E 030°11'0 0.0
2017-Aug-16 05:30N 59°57' E 030°11'0 0.0
2017-Aug-16 05:00N 59°57' E 030°11'0 0.0
2017-Aug-16 04:27N 59°57' E 030°11'0 0.0
2017-Aug-16 04:00N 59°57' E 030°11'0 0.0
2017-Aug-16 03:30N 59°57' E 030°11'0 0.0
2017-Aug-16 03:00N 59°57' E 030°11'0 0.0
2017-Aug-16 02:30N 59°57' E 030°11'0 0.0
2017-Aug-16 02:00N 59°57' E 030°11'0 0.0
2017-Aug-16 01:30N 59°57' E 030°11'0 0.0
2017-Aug-16 01:00N 59°57' E 030°11'0 0.0
2017-Aug-16 00:30N 59°57' E 030°11'0 0.0
2017-Aug-16 00:00N 59°57' E 030°11'0 0.0
2017-Aug-15 23:30N 59°57' E 030°11'0 0.0
2017-Aug-15 23:00N 59°57' E 030°11'0 0.0
2017-Aug-15 22:30N 59°57' E 030°11'0 0.0
2017-Aug-15 22:00N 59°57' E 030°11'0 0.0
2017-Aug-15 21:30N 59°57' E 030°11'0 0.0
2017-Aug-15 20:57N 59°57' E 030°11'0 0.0
2017-Aug-15 20:30N 59°57' E 030°11'0 0.0
2017-Aug-15 20:00N 59°57' E 030°11'0 0.0
2017-Aug-15 19:30N 59°57' E 030°11'0 0.0
2017-Aug-15 19:00N 59°57' E 030°11'0 0.0
2017-Aug-15 18:30N 59°57' E 030°11'0 0.0
2017-Aug-15 18:00N 59°57' E 030°11'0 0.0
2017-Aug-15 17:30N 59°57' E 030°11'0 0.0
2017-Aug-15 17:00N 59°57' E 030°11'0 0.0
2017-Aug-15 16:30N 59°57' E 030°11'0 0.0
2017-Aug-15 16:00N 59°57' E 030°11'0 0.0
2017-Aug-15 15:27N 59°57' E 030°11'0 0.0
2017-Aug-15 15:00N 59°57' E 030°11'0 0.0
2017-Aug-15 14:30N 59°57' E 030°11'0 0.0
2017-Aug-15 14:00N 59°57' E 030°11'0 0.0
2017-Aug-15 13:30N 59°57' E 030°11'0 0.0
2017-Aug-15 13:00N 59°57' E 030°11'0 0.0
2017-Aug-15 12:30N 59°57' E 030°11'0 0.0
2017-Aug-15 12:00N 59°57' E 030°11'0 0.0
2017-Aug-15 11:30N 59°57' E 030°11'0 0.0
2017-Aug-15 11:00N 59°57' E 030°11'0 0.0
2017-Aug-15 10:30N 59°57' E 030°11'0 0.0
2017-Aug-15 10:00N 59°57' E 030°11'0 0.0
2017-Aug-15 09:30N 59°57' E 030°11'0 0.0
2017-Aug-15 09:00N 59°57' E 030°11'0 0.0
2017-Aug-15 08:30N 59°57' E 030°11'0 0.0
2017-Aug-15 08:00N 59°57' E 030°11'0 0.0
2017-Aug-15 07:21N 59°57' E 030°11'0 0.0
2017-Aug-15 07:00N 59°57' E 030°11'0 0.0
2017-Aug-15 06:30N 59°57' E 030°11'0 0.0
2017-Aug-15 06:00N 59°57' E 030°11'0 0.0
2017-Aug-15 05:30N 59°57' E 030°11'0 0.0
2017-Aug-15 05:00N 59°57' E 030°11'0 0.0
2017-Aug-15 04:30N 59°57' E 030°11'0 0.0
2017-Aug-15 03:57N 59°57' E 030°11'0 0.0
2017-Aug-15 03:30N 59°57' E 030°11'1 2.2
2017-Aug-15 03:01N 59°57' E 030°09'5 9.6
2017-Aug-15 02:30N 59°55' E 030°01'510.0
2017-Aug-15 02:01N 59°57' E 029°51'4 8.2
2017-Aug-15 01:31N 59°59' E 029°44'611.1
2017-Aug-15 01:00N 60°01' E 029°33'612.3
2017-Aug-15 00:30N 60°02' E 029°21'815.4
2017-Aug-15 00:00N 60°01' E 029°06'917.5
2017-Aug-14 23:31N 60°02' E 028°48'917.9
2017-Aug-14 23:00N 60°03' E 028°31'917.7
2017-Aug-14 22:30N 60°07' E 028°16'917.6
2017-Aug-14 22:00N 60°09' E 027°58'1020.8
2017-Aug-14 21:30N 60°08' E 027°38'1020.7
2017-Aug-14 21:01N 60°03' E 027°20'1019.5
2017-Aug-14 20:30N 59°58' E 027°03'1020.3
2017-Aug-14 20:00N 59°59' E 026°43'1122.1
2017-Aug-14 19:30N 59°57' E 026°21'1019.2
2017-Aug-14 19:00N 59°55' E 026°03'1020.8
2017-Aug-14 18:30N 59°52' E 025°43'1020.9
2017-Aug-14 18:00N 59°49' E 025°22'1020.9
2017-Aug-14 17:31N 59°47' E 025°02'1020.5
2017-Aug-14 17:01N 59°41' E 024°46'714.8
2017-Aug-14 16:31N 59°33' E 024°43'612.2
2017-Aug-14 16:01N 59°27' E 024°46'0 0.9
2017-Aug-14 15:28N 59°27' E 024°46'0 0.0
2017-Aug-14 14:58N 59°27' E 024°46'0 0.0
2017-Aug-14 14:28N 59°27' E 024°46'0 0.0
2017-Aug-14 13:58N 59°27' E 024°46'0 0.0
2017-Aug-14 13:28N 59°27' E 024°46'0 0.0
2017-Aug-14 12:58N 59°27' E 024°46'0 0.0
2017-Aug-14 12:28N 59°27' E 024°46'0 0.0
2017-Aug-14 11:55N 59°27' E 024°46'0 0.0
2017-Aug-14 11:28N 59°27' E 024°46'0 0.0
2017-Aug-14 10:58N 59°27' E 024°46'0 0.0
2017-Aug-14 10:28N 59°27' E 024°46'0 0.0
2017-Aug-14 09:58N 59°27' E 024°46'0 0.0
2017-Aug-14 09:28N 59°27' E 024°46'0 0.0
2017-Aug-14 08:58N 59°27' E 024°46'0 0.1
2017-Aug-14 08:30N 59°27' E 024°46'4 8.5
2017-Aug-14 08:01N 59°31' E 024°41'815.4
2017-Aug-14 07:31N 59°30' E 024°26'816.4
2017-Aug-14 07:00N 59°29' E 024°10'816.2
2017-Aug-14 06:31N 59°29' E 023°54'816.2
2017-Aug-14 06:00N 59°29' E 023°38'816.4
2017-Aug-14 05:31N 59°28' E 023°22'816.5
2017-Aug-14 05:01N 59°28' E 023°06'816.2
2017-Aug-14 04:31N 59°27' E 022°50'816.8
2017-Aug-14 04:00N 59°25' E 022°34'917.3
2017-Aug-14 03:30N 59°19' E 022°21'917.7
2017-Aug-14 03:00N 59°14' E 022°07'917.6
2017-Aug-14 02:31N 59°08' E 021°54'917.4
2017-Aug-14 02:01N 59°02' E 021°42'917.9
2017-Aug-14 01:30N 58°54' E 021°35'  
Track history (hours):
 
Tides and Currents Weather Stations Pressure Air Temp Water Temp Dewpoint Dewpoint Depression Visibility Wind Speed Wind Dir Waves Ship Positions

Vision of The Seas

Operator: Royal Caribbean Cruises Ltd

Last reported at 2017-Aug-24 01:00 UTC. Time now 2017-Aug-24 01:11 UTC.
Position N 57°53' E 008°50'.

Type: Passenger vessel. MMSI: 311321000.

Date/timePositionNaut miles runAvg speedWind from/ knotsBaromVisibWave heightAir tempDewpointWater temp
2017-Aug-24 01:00N 57°53' E 008°50'15 8.0
2017-Aug-23 23:10N 57°52' E 009°17'1 6.5
2017-Aug-23 22:56N 57°53' E 009°20'6 6.5
2017-Aug-23 22:03N 57°54' E 009°31'0 6.2
2017-Aug-23 22:00N 57°54' E 009°31'3 6.6
2017-Aug-23 21:30N 57°54' E 009°38'3 6.3
2017-Aug-23 21:00N 57°55' E 009°43'3 6.8
2017-Aug-23 20:30N 57°56' E 009°49'3 6.9
2017-Aug-23 20:00N 57°57' E 009°56'3 6.8
2017-Aug-23 19:30N 57°58' E 010°02'3 6.9
2017-Aug-23 19:00N 57°57' E 010°08'4 6.8
2017-Aug-23 18:27N 57°57' E 010°15'3 6.6
2017-Aug-23 18:00N 57°55' E 010°20'4 6.5
2017-Aug-23 17:27N 57°54' E 010°27'3 6.4
2017-Aug-23 16:59N 57°53' E 010°32'3 6.1
2017-Aug-23 16:30N 57°52' E 010°37'3 6.4
2017-Aug-23 15:58N 57°49' E 010°42'3 6.5
2017-Aug-23 15:30N 57°47' E 010°46'3 6.7
2017-Aug-23 15:00N 57°44' E 010°46'3 6.4
2017-Aug-23 14:29N 57°43' E 010°40'3 1.4
2017-Aug-23 12:30N 57°43' E 010°35'0 0.0
2017-Aug-23 11:51N 57°43' E 010°35'0 0.0
2017-Aug-23 11:15N 57°43' E 010°35'0 0.0
2017-Aug-23 10:24N 57°43' E 010°35'0 0.0
2017-Aug-23 09:18N 57°43' E 010°35'0 0.0
2017-Aug-23 09:00N 57°43' E 010°35'0 0.0
2017-Aug-23 08:30N 57°43' E 010°35'0 0.0
2017-Aug-23 08:00N 57°43' E 010°35'0 0.0
2017-Aug-23 07:27N 57°43' E 010°35'0 0.0
2017-Aug-23 06:48N 57°43' E 010°35'0 0.0
2017-Aug-23 05:36N 57°43' E 010°35'0 0.0
2017-Aug-23 05:06N 57°43' E 010°35'0 0.1
2017-Aug-23 05:00N 57°43' E 010°35'2 3.8
2017-Aug-23 04:30N 57°43' E 010°39'510.3
2017-Aug-23 03:59N 57°42' E 010°48'510.3
2017-Aug-23 03:30N 57°40' E 010°58'510.1
2017-Aug-23 03:00N 57°39' E 011°06'510.3
2017-Aug-23 02:30N 57°35' E 011°14'510.7
2017-Aug-23 02:01N 57°32' E 011°21'510.3
2017-Aug-23 01:30N 57°28' E 011°27'510.3
2017-Aug-23 01:00N 57°23' E 011°30'510.4
2017-Aug-23 00:30N 57°18' E 011°33'510.7
2017-Aug-23 00:00N 57°13' E 011°37'610.8
2017-Aug-22 23:29N 57°08' E 011°40'510.6
2017-Aug-22 22:59N 57°03' E 011°43'710.6
2017-Aug-22 22:22N 56°56' E 011°47'3911.5
2017-Aug-22 18:59N 56°19' E 012°06'610.4
2017-Aug-22 18:24N 56°15' E 012°14'410.6
2017-Aug-22 18:00N 56°12' E 012°20'612.2
2017-Aug-22 17:30N 56°09' E 012°29'815.3
2017-Aug-22 17:01N 56°04' E 012°39'714.9
2017-Aug-22 16:31N 55°57' E 012°44'714.6
2017-Aug-22 16:01N 55°49' E 012°44'612.7
2017-Aug-22 15:31N 55°44' E 012°39'1 2.6
2017-Aug-22 14:58N 55°43' E 012°37'0 0.0
2017-Aug-22 14:28N 55°43' E 012°37'0 0.0
2017-Aug-22 13:58N 55°43' E 012°37'0 0.0
2017-Aug-22 13:28N 55°43' E 012°37'0 0.0
2017-Aug-22 12:58N 55°43' E 012°37'0 0.0
2017-Aug-22 12:28N 55°43' E 012°37'0 0.0
2017-Aug-22 11:58N 55°43' E 012°37'0 0.0
2017-Aug-22 11:28N 55°43' E 012°37'0 0.0
2017-Aug-22 10:58N 55°43' E 012°37'0 0.0
2017-Aug-22 10:28N 55°43' E 012°37'0 0.0
2017-Aug-22 09:58N 55°43' E 012°37'0 0.0
2017-Aug-22 09:28N 55°43' E 012°37'0 0.0
2017-Aug-22 08:58N 55°43' E 012°37'0 0.0
2017-Aug-22 08:28N 55°43' E 012°37'0 0.0
2017-Aug-22 07:58N 55°43' E 012°37'0 0.0
2017-Aug-22 07:28N 55°43' E 012°37'0 0.0
2017-Aug-22 06:58N 55°43' E 012°37'0 0.0
2017-Aug-22 06:28N 55°43' E 012°37'0 0.0
2017-Aug-22 05:58N 55°43' E 012°37'0 0.0
2017-Aug-22 05:28N 55°43' E 012°37'0 0.0
2017-Aug-22 04:58N 55°43' E 012°37'0 0.0
2017-Aug-22 04:28N 55°43' E 012°37'0 0.0
2017-Aug-22 03:58N 55°43' E 012°37'1 1.5
2017-Aug-22 03:30N 55°43' E 012°38'5 9.9
2017-Aug-22 03:00N 55°47' E 012°42'612.7
2017-Aug-22 02:30N 55°54' E 012°39'611.5
2017-Aug-22 02:00N 55°59' E 012°41'713.2
2017-Aug-22 01:31N 56°05' E 012°35'816.1
2017-Aug-22 01:00N 56°10' E 012°23'714.0
2017-Aug-22 00:31N 56°14' E 012°13'2811.9
2017-Aug-21 22:10N 56°15' E 011°23'214.2
2017-Aug-21 22:00N 56°13' E 011°21'814.4
2017-Aug-21 21:29N 56°08' E 011°12'715.0
2017-Aug-21 21:00N 56°01' E 011°06'814.8
2017-Aug-21 20:30N 55°55' E 010°58'814.8
2017-Aug-21 19:59N 55°49' E 010°50'714.6
2017-Aug-21 19:29N 55°42' E 010°48'714.3
2017-Aug-21 18:59N 55°35' E 010°50'713.9
2017-Aug-21 18:29N 55°29' E 010°55'714.3
2017-Aug-21 18:00N 55°23' E 011°02'714.0
2017-Aug-21 17:30N 55°16' E 011°05'713.3
2017-Aug-21 17:00N 55°10' E 011°04'713.8
2017-Aug-21 16:30N 55°03' E 011°03'714.0
2017-Aug-21 16:00N 54°56' E 010°57'612.8
2017-Aug-21 15:30N 54°51' E 010°53'714.1
2017-Aug-21 15:00N 54°44' E 010°53'815.7
2017-Aug-21 14:30N 54°39' E 011°04'715.0
2017-Aug-21 14:00N 54°35' E 011°15'815.1
2017-Aug-21 13:30N 54°31' E 011°26'714.2
2017-Aug-21 13:00N 54°29' E 011°38'713.9
2017-Aug-21 12:30N 54°26' E 011°49'714.6
2017-Aug-21 12:00N 54°27' E 012°01'713.1
2017-Aug-21 11:31N 54°30' E 012°11'714.5
2017-Aug-21 11:00N 54°37' E 012°15'4913.7
2017-Aug-21 07:28N 54°56' E 013°32'714.8
2017-Aug-21 07:00N 54°57' E 013°44'815.3
2017-Aug-21 06:30N 54°57' E 013°58'714.5
2017-Aug-21 06:00N 54°57' E 014°10'714.2
2017-Aug-21 05:30N 54°57' E 014°22'714.0
2017-Aug-21 05:01N 54°54' E 014°34'714.0
2017-Aug-21 04:30N 54°52' E 014°45'714.1
2017-Aug-21 04:01N 54°52' E 014°57'714.2
2017-Aug-21 03:31N 54°52' E 015°10'714.3
2017-Aug-21 03:01N 54°52' E 015°22'713.9
2017-Aug-21 02:30N 54°54' E 015°34'1114.3
2017-Aug-21 01:44N 54°59' E 015°51'8913.9
2017-Aug-20 19:20N 55°05' E 018°26'514.4
2017-Aug-20 19:00N 55°03' E 018°33'714.4
2017-Aug-20 18:30N 54°60' E 018°45'713.9
2017-Aug-20 18:01N 54°54' E 018°52'714.5
2017-Aug-20 17:31N 54°48' E 018°58'714.2
2017-Aug-20 17:01N 54°41' E 018°58'714.3
2017-Aug-20 16:31N 54°35' E 018°53'612.8
2017-Aug-20 16:01N 54°32' E 018°43'5 9.9
2017-Aug-20 15:31N 54°32' E 018°34'1 1.1
2017-Aug-20 14:57N 54°32' E 018°33'0 0.1
2017-Aug-20 14:27N 54°32' E 018°33'0 0.0
2017-Aug-20 13:57N 54°32' E 018°33'0 0.1
2017-Aug-20 13:27N 54°32' E 018°33'0 0.0
2017-Aug-20 12:57N 54°32' E 018°33'0 0.0
2017-Aug-20 12:27N 54°32' E 018°33'0 0.0
2017-Aug-20 11:57N 54°32' E 018°33'0 0.0
2017-Aug-20 11:27N 54°32' E 018°33'0 0.0
2017-Aug-20 10:57N 54°32' E 018°33'0 0.0
2017-Aug-20 10:27N 54°32' E 018°33'0 0.1
2017-Aug-20 09:57N 54°32' E 018°33'0 0.1
2017-Aug-20 09:27N 54°32' E 018°33'0 0.1
2017-Aug-20 08:57N 54°32' E 018°33'0 0.0
2017-Aug-20 08:27N 54°32' E 018°33'0 0.0
2017-Aug-20 07:57N 54°32' E 018°33'0 0.0
2017-Aug-20 07:27N 54°32' E 018°33'0 0.0
2017-Aug-20 06:57N 54°32' E 018°33'0 0.0
2017-Aug-20 06:27N 54°32' E 018°33'0 0.0
2017-Aug-20 05:58N 54°32' E 018°33'1 1.8
2017-Aug-20 05:30N 54°32' E 018°34'4 8.7
2017-Aug-20 05:00N 54°32' E 018°42'510.1
2017-Aug-20 04:30N 54°34' E 018°50'713.4
2017-Aug-20 04:00N 54°39' E 018°56'611.8
2017-Aug-20 03:30N 54°45' E 019°01'612.7
2017-Aug-20 03:00N 54°50' E 019°08'612.7
2017-Aug-20 02:30N 54°55' E 019°14'612.6
2017-Aug-20 02:00N 55°00' E 019°20'612.8
2017-Aug-20 01:30N 55°05' E 019°27'612.8
2017-Aug-20 01:00N 55°10' E 019°34'186 7.9
2017-Aug-19 01:27N 58°15' E 020°18'920.2
2017-Aug-19 01:00N 58°24' E 020°16'1020.1
2017-Aug-19 00:30N 58°34' E 020°15'1020.2
2017-Aug-19 00:00N 58°44' E 020°13'1020.4
2017-Aug-18 23:30N 58°54' E 020°11'1020.7
2017-Aug-18 23:00N 59°04' E 020°10'1020.7
2017-Aug-18 22:31N 59°15' E 020°08'1020.8
2017-Aug-18 22:00N 59°25' E 020°06'1020.1
2017-Aug-18 21:30N 59°35' E 020°02'1020.5
2017-Aug-18 21:00N 59°42' E 019°48'1019.3
2017-Aug-18 20:31N 59°46' E 019°31'815.1
2017-Aug-18 20:00N 59°45' E 019°16'917.4
2017-Aug-18 19:31N 59°41' E 019°00'510.4
2017-Aug-18 19:00N 59°38' E 018°52'612.1
2017-Aug-18 18:31N 59°35' E 018°42'510.4
2017-Aug-18 18:01N 59°32' E 018°33'510.0
2017-Aug-18 17:30N 59°29' E 018°27'5 9.3
2017-Aug-18 17:00N 59°24' E 018°26'3 6.0
2017-Aug-18 16:30N 59°22' E 018°22'510.5
2017-Aug-18 16:00N 59°20' E 018°12'2 3.8
2017-Aug-18 15:21N 59°21' E 018°07'0 0.0
2017-Aug-18 14:57N 59°21' E 018°07'0 0.0
2017-Aug-18 13:57N 59°21' E 018°07'0 0.0
2017-Aug-18 13:27N 59°21' E 018°07'0 0.0
2017-Aug-18 12:57N 59°21' E 018°07'0 0.0
2017-Aug-18 12:21N 59°21' E 018°07'0 0.0
2017-Aug-18 11:51N 59°21' E 018°07'0 0.0
2017-Aug-18 11:21N 59°21' E 018°07'0 0.0
2017-Aug-18 10:57N 59°21' E 018°07'0 0.0
2017-Aug-18 10:27N 59°21' E 018°07'0 0.0
2017-Aug-18 09:57N 59°21' E 018°07'0 0.0
2017-Aug-18 09:27N 59°21' E 018°07'0 0.0
2017-Aug-18 08:57N 59°21' E 018°07'0 0.0
2017-Aug-18 08:27N 59°21' E 018°07'0 0.0
2017-Aug-18 07:57N 59°21' E 018°07'0 0.0
2017-Aug-18 07:30N 59°21' E 018°07'0 0.0
2017-Aug-18 07:00N 59°21' E 018°07'0 0.0
2017-Aug-18 06:30N 59°21' E 018°07'0 0.0
2017-Aug-18 06:00N 59°21' E 018°07'2 3.3
2017-Aug-18 05:30N 59°20' E 018°11'510.4
2017-Aug-18 05:00N 59°23' E 018°20'4 7.4
2017-Aug-18 04:30N 59°22' E 018°27'4 9.0
2017-Aug-18 04:00N 59°26' E 018°24'510.6
2017-Aug-18 03:30N 59°31' E 018°30'5 9.6
2017-Aug-18 03:01N 59°34' E 018°38'611.6
2017-Aug-18 02:30N 59°37' E 018°48'510.4
2017-Aug-18 02:01N 59°40' E 018°56'714.3
2017-Aug-18 01:30N 59°44' E 019°08'815.9
2017-Aug-18 01:00N 59°46' E 019°23'612.3
2017-Aug-18 00:30N 59°48' E 019°34'714.6
2017-Aug-18 00:00N 59°46' E 019°48'816.2
2017-Aug-17 23:30N 59°40' E 019°60'817.0
2017-Aug-17 23:00N 59°34' E 020°11'917.2
2017-Aug-17 22:30N 59°26' E 020°16'917.8
2017-Aug-17 22:00N 59°24' E 020°33'918.1
2017-Aug-17 21:31N 59°24' E 020°51'1020.0
2017-Aug-17 21:00N 59°24' E 021°11'815.9
2017-Aug-17 20:31N 59°25' E 021°26'917.9
2017-Aug-17 20:01N 59°25' E 021°44'918.1
2017-Aug-17 19:30N 59°25' E 022°02'918.2
2017-Aug-17 19:00N 59°27' E 022°19'919.0
2017-Aug-17 18:30N 59°30' E 022°37'817.0
2017-Aug-17 18:00N 59°32' E 022°53'917.6
2017-Aug-17 17:30N 59°35' E 023°10'918.9
2017-Aug-17 17:01N 59°37' E 023°28'815.8
2017-Aug-17 16:30N 59°40' E 023°43'918.9
2017-Aug-17 16:01N 59°42' E 024°01'917.1
2017-Aug-17 15:31N 59°45' E 024°16'918.1
2017-Aug-17 15:01N 59°48' E 024°33'918.6
2017-Aug-17 14:31N 59°56' E 024°45'815.5
2017-Aug-17 14:01N 60°02' E 024°55'713.1
2017-Aug-17 13:30N 60°08' E 024°54'1 2.1
2017-Aug-17 13:00N 60°09' E 024°55'0 0.0
2017-Aug-17 12:30N 60°09' E 024°55'0 0.0
2017-Aug-17 11:58N 60°09' E 024°55'0 0.0
2017-Aug-17 11:28N 60°09' E 024°55'0 0.0
2017-Aug-17 10:58N 60°09' E 024°55'0 0.0
2017-Aug-17 10:30N 60°09' E 024°55'0 0.0
2017-Aug-17 09:59N 60°09' E 024°55'0 0.0
2017-Aug-17 09:29N 60°09' E 024°55'0 0.0
2017-Aug-17 08:58N 60°09' E 024°55'0 0.0
2017-Aug-17 08:28N 60°09' E 024°55'0 0.0
2017-Aug-17 07:58N 60°09' E 024°55'0 0.0
2017-Aug-17 07:29N 60°09' E 024°55'0 0.0
2017-Aug-17 06:58N 60°09' E 024°55'0 0.0
2017-Aug-17 06:29N 60°09' E 024°55'0 0.0
2017-Aug-17 05:58N 60°09' E 024°55'0 0.0
2017-Aug-17 05:25N 60°09' E 024°55'0 0.0
2017-Aug-17 04:58N 60°09' E 024°55'0 0.0
2017-Aug-17 04:28N 60°09' E 024°55'0 0.0
2017-Aug-17 03:58N 60°09' E 024°55'0 0.0
2017-Aug-17 03:30N 60°09' E 024°55'1 3.0
2017-Aug-17 03:00N 60°08' E 024°54'714.2
2017-Aug-17 02:30N 60°01' E 024°56'714.2
2017-Aug-17 02:01N 59°56' E 025°07'816.1
2017-Aug-17 01:31N 59°54' E 025°23'816.0
2017-Aug-17 01:01N 59°54' E 025°39'816.5
2017-Aug-17 00:30N 59°57' E 025°54'714.1
2017-Aug-17 00:01N 59°58' E 026°08'816.5
2017-Aug-16 23:31N 60°00' E 026°24'917.7
2017-Aug-16 23:01N 60°01' E 026°41'918.0
2017-Aug-16 22:31N 60°00' E 026°59'815.6
2017-Aug-16 22:00N 60°03' E 027°14'917.9
2017-Aug-16 21:31N 60°08' E 027°29'917.8
2017-Aug-16 21:00N 60°12' E 027°45'1021.0
2017-Aug-16 20:30N 60°09' E 028°05'918.0
2017-Aug-16 20:00N 60°06' E 028°22'917.3
2017-Aug-16 19:31N 60°03' E 028°38'714.4
2017-Aug-16 19:00N 60°03' E 028°53'917.8
2017-Aug-16 18:30N 60°02' E 029°10'816.6
2017-Aug-16 18:00N 60°02' E 029°27'611.9
2017-Aug-16 17:30N 60°00' E 029°38'5 9.7
2017-Aug-16 17:00N 59°58' E 029°47'611.6
2017-Aug-16 16:30N 59°56' E 029°58'510.3
2017-Aug-16 16:00N 59°57' E 030°08'2 3.6
2017-Aug-16 15:30N 59°57' E 030°11'0 0.0
2017-Aug-16 15:00N 59°57' E 030°11'0 0.0
2017-Aug-16 14:30N 59°57' E 030°11'0 0.0
2017-Aug-16 14:00N 59°57' E 030°11'0 0.0
2017-Aug-16 13:30N 59°57' E 030°11'0 0.0
2017-Aug-16 13:00N 59°57' E 030°11'0 0.0
2017-Aug-16 12:30N 59°57' E 030°11'0 0.0
2017-Aug-16 12:00N 59°57' E 030°11'0 0.0
2017-Aug-16 11:30N 59°57' E 030°11'0 0.0
2017-Aug-16 11:00N 59°57' E 030°11'0 0.0
2017-Aug-16 10:27N 59°57' E 030°11'0 0.0
2017-Aug-16 10:00N 59°57' E 030°11'0 0.0
2017-Aug-16 09:30N 59°57' E 030°11'0 0.0
2017-Aug-16 09:00N 59°57' E 030°11'0 0.0
2017-Aug-16 08:30N 59°57' E 030°11'0 0.0
2017-Aug-16 08:00N 59°57' E 030°11'0 0.0
2017-Aug-16 07:30N 59°57' E 030°11'0 0.0
2017-Aug-16 07:00N 59°57' E 030°11'0 0.0
2017-Aug-16 06:30N 59°57' E 030°11'0 0.0
2017-Aug-16 06:00N 59°57' E 030°11'0 0.0
2017-Aug-16 05:30N 59°57' E 030°11'0 0.0
2017-Aug-16 05:00N 59°57' E 030°11'0 0.0
2017-Aug-16 04:27N 59°57' E 030°11'0 0.0
2017-Aug-16 04:00N 59°57' E 030°11'0 0.0
2017-Aug-16 03:30N 59°57' E 030°11'0 0.0
2017-Aug-16 03:00N 59°57' E 030°11'0 0.0
2017-Aug-16 02:30N 59°57' E 030°11'0 0.0
2017-Aug-16 02:00N 59°57' E 030°11'0 0.0
2017-Aug-16 01:30N 59°57' E 030°11'0 0.0
2017-Aug-16 01:00N 59°57' E 030°11'0 0.0
2017-Aug-16 00:30N 59°57' E 030°11'0 0.0
2017-Aug-16 00:00N 59°57' E 030°11'0 0.0
2017-Aug-15 23:30N 59°57' E 030°11'0 0.0
2017-Aug-15 23:00N 59°57' E 030°11'0 0.0
2017-Aug-15 22:30N 59°57' E 030°11'0 0.0
2017-Aug-15 22:00N 59°57' E 030°11'0 0.0
2017-Aug-15 21:30N 59°57' E 030°11'0 0.0
2017-Aug-15 20:57N 59°57' E 030°11'0 0.0
2017-Aug-15 20:30N 59°57' E 030°11'0 0.0
2017-Aug-15 20:00N 59°57' E 030°11'0 0.0
2017-Aug-15 19:30N 59°57' E 030°11'0 0.0
2017-Aug-15 19:00N 59°57' E 030°11'0 0.0
2017-Aug-15 18:30N 59°57' E 030°11'0 0.0
2017-Aug-15 18:00N 59°57' E 030°11'0 0.0
2017-Aug-15 17:30N 59°57' E 030°11'0 0.0
2017-Aug-15 17:00N 59°57' E 030°11'0 0.0
2017-Aug-15 16:30N 59°57' E 030°11'0 0.0
2017-Aug-15 16:00N 59°57' E 030°11'0 0.0
2017-Aug-15 15:27N 59°57' E 030°11'0 0.0
2017-Aug-15 15:00N 59°57' E 030°11'0 0.0
2017-Aug-15 14:30N 59°57' E 030°11'0 0.0
2017-Aug-15 14:00N 59°57' E 030°11'0 0.0
2017-Aug-15 13:30N 59°57' E 030°11'0 0.0
2017-Aug-15 13:00N 59°57' E 030°11'0 0.0
2017-Aug-15 12:30N 59°57' E 030°11'0 0.0
2017-Aug-15 12:00N 59°57' E 030°11'0 0.0
2017-Aug-15 11:30N 59°57' E 030°11'0 0.0
2017-Aug-15 11:00N 59°57' E 030°11'0 0.0
2017-Aug-15 10:30N 59°57' E 030°11'0 0.0
2017-Aug-15 10:00N 59°57' E 030°11'0 0.0
2017-Aug-15 09:30N 59°57' E 030°11'0 0.0
2017-Aug-15 09:00N 59°57' E 030°11'0 0.0
2017-Aug-15 08:30N 59°57' E 030°11'0 0.0
2017-Aug-15 08:00N 59°57' E 030°11'0 0.0
2017-Aug-15 07:21N 59°57' E 030°11'0 0.0
2017-Aug-15 07:00N 59°57' E 030°11'0 0.0
2017-Aug-15 06:30N 59°57' E 030°11'0 0.0
2017-Aug-15 06:00N 59°57' E 030°11'0 0.0
2017-Aug-15 05:30N 59°57' E 030°11'0 0.0
2017-Aug-15 05:00N 59°57' E 030°11'0 0.0
2017-Aug-15 04:30N 59°57' E 030°11'0 0.0
2017-Aug-15 03:57N 59°57' E 030°11'0 0.0
2017-Aug-15 03:30N 59°57' E 030°11'1 2.2
2017-Aug-15 03:01N 59°57' E 030°09'5 9.6
2017-Aug-15 02:30N 59°55' E 030°01'510.0
2017-Aug-15 02:01N 59°57' E 029°51'4 8.2
2017-Aug-15 01:31N 59°59' E 029°44'611.1
2017-Aug-15 01:00N 60°01' E 029°33'612.3
2017-Aug-15 00:30N 60°02' E 029°21'815.4
2017-Aug-15 00:00N 60°01' E 029°06'917.5
2017-Aug-14 23:31N 60°02' E 028°48'917.9
2017-Aug-14 23:00N 60°03' E 028°31'917.7
2017-Aug-14 22:30N 60°07' E 028°16'917.6
2017-Aug-14 22:00N 60°09' E 027°58'1020.8
2017-Aug-14 21:30N 60°08' E 027°38'1020.7
2017-Aug-14 21:01N 60°03' E 027°20'1019.5
2017-Aug-14 20:30N 59°58' E 027°03'1020.3
2017-Aug-14 20:00N 59°59' E 026°43'1122.1
2017-Aug-14 19:30N 59°57' E 026°21'1019.2
2017-Aug-14 19:00N 59°55' E 026°03'1020.8
2017-Aug-14 18:30N 59°52' E 025°43'1020.9
2017-Aug-14 18:00N 59°49' E 025°22'1020.9
2017-Aug-14 17:31N 59°47' E 025°02'1020.5
2017-Aug-14 17:01N 59°41' E 024°46'714.8
2017-Aug-14 16:31N 59°33' E 024°43'612.2
2017-Aug-14 16:01N 59°27' E 024°46'0 0.9
2017-Aug-14 15:28N 59°27' E 024°46'0 0.0
2017-Aug-14 14:58N 59°27' E 024°46'0 0.0
2017-Aug-14 14:28N 59°27' E 024°46'0 0.0
2017-Aug-14 13:58N 59°27' E 024°46'0 0.0
2017-Aug-14 13:28N 59°27' E 024°46'0 0.0
2017-Aug-14 12:58N 59°27' E 024°46'0 0.0
2017-Aug-14 12:28N 59°27' E 024°46'0 0.0
2017-Aug-14 11:55N 59°27' E 024°46'0 0.0
2017-Aug-14 11:28N 59°27' E 024°46'0 0.0
2017-Aug-14 10:58N 59°27' E 024°46'0 0.0
2017-Aug-14 10:28N 59°27' E 024°46'0 0.0
2017-Aug-14 09:58N 59°27' E 024°46'0 0.0
2017-Aug-14 09:28N 59°27' E 024°46'0 0.0
2017-Aug-14 08:58N 59°27' E 024°46'0 0.1
2017-Aug-14 08:30N 59°27' E 024°46'4 8.5
2017-Aug-14 08:01N 59°31' E 024°41'815.4
2017-Aug-14 07:31N 59°30' E 024°26'816.4
2017-Aug-14 07:00N 59°29' E 024°10'816.2
2017-Aug-14 06:31N 59°29' E 023°54'816.2
2017-Aug-14 06:00N 59°29' E 023°38'816.4
2017-Aug-14 05:31N 59°28' E 023°22'816.5
2017-Aug-14 05:01N 59°28' E 023°06'816.2
2017-Aug-14 04:31N 59°27' E 022°50'816.8
2017-Aug-14 04:00N 59°25' E 022°34'917.3
2017-Aug-14 03:30N 59°19' E 022°21'917.7
2017-Aug-14 03:00N 59°14' E 022°07'917.6
2017-Aug-14 02:31N 59°08' E 021°54'917.4
2017-Aug-14 02:01N 59°02' E 021°42'917.9
2017-Aug-14 01:30N 58°54' E 021°35'  

Dump ship's entire track history